<?xml version="1.0" encoding="UTF-8"?>
<gpx xmlns="http://www.topografix.com/GPX/1/1" xmlns:gpsies="http://www.gpsies.com/GPX/1/0" creator="GPSies http://www.gpsies.com - Effort_6884188725" version="1.1" xmlns:xsi="http://www.w3.org/2001/XMLSchema-instance" xsi:schemaLocation="http://www.topografix.com/GPX/1/1 http://www.topografix.com/GPX/1/1/gpx.xsd http://www.gpsies.com/GPX/1/0 http://www.gpsies.com/gpsies.xsd">
  <metadata>
    <name>Effort_6884188725</name>
    <link href="http://www.gpsies.com/">
      <text>Effort_6884188725 on GPSies.com</text>
    </link>
    <time>2015-04-29T18:34:08Z</time>
  </metadata>
  <trk>
    <name>Effort_6884188725 on GPSies.com</name>
    <trkseg>
      <trkpt lat="57.67369000" lon="12.01839000">
        <ele>96.000000</ele>
        <time>2015-04-24T17:09:07Z</time>
      </trkpt>
      <trkpt lat="57.67360000" lon="12.01841000">
        <ele>95.000000</ele>
        <time>2015-04-24T17:09:10Z</time>
      </trkpt>
      <trkpt lat="57.67351000" lon="12.01845000">
        <ele>95.000000</ele>
        <time>2015-04-24T17:09:13Z</time>
      </trkpt>
      <trkpt lat="57.67343000" lon="12.01850000">
        <ele>95.000000</ele>
        <time>2015-04-24T17:09:16Z</time>
      </trkpt>
      <trkpt lat="57.67337000" lon="12.01857000">
        <ele>96.000000</ele>
        <time>2015-04-24T17:09:21Z</time>
      </trkpt>
      <trkpt lat="57.67331000" lon="12.01865000">
        <ele>97.000000</ele>
        <time>2015-04-24T17:09:24Z</time>
      </trkpt>
      <trkpt lat="57.67322000" lon="12.01879000">
        <ele>98.000000</ele>
        <time>2015-04-24T17:09:27Z</time>
      </trkpt>
      <trkpt lat="57.67312000" lon="12.01891000">
        <ele>97.000000</ele>
        <time>2015-04-24T17:09:30Z</time>
      </trkpt>
      <trkpt lat="57.67303000" lon="12.01901000">
        <ele>96.000000</ele>
        <time>2015-04-24T17:09:33Z</time>
      </trkpt>
      <trkpt lat="57.67295000" lon="12.01914000">
        <ele>96.000000</ele>
        <time>2015-04-24T17:09:36Z</time>
      </trkpt>
      <trkpt lat="57.67288000" lon="12.01929000">
        <ele>95.000000</ele>
        <time>2015-04-24T17:09:39Z</time>
      </trkpt>
      <trkpt lat="57.67280000" lon="12.01939000">
        <ele>94.000000</ele>
        <time>2015-04-24T17:09:42Z</time>
      </trkpt>
      <trkpt lat="57.67270000" lon="12.01945000">
        <ele>93.000000</ele>
        <time>2015-04-24T17:09:45Z</time>
      </trkpt>
      <trkpt lat="57.67259000" lon="12.01951000">
        <ele>92.000000</ele>
        <time>2015-04-24T17:09:48Z</time>
      </trkpt>
      <trkpt lat="57.67246000" lon="12.01964000">
        <ele>91.000000</ele>
        <time>2015-04-24T17:09:51Z</time>
      </trkpt>
      <trkpt lat="57.67235000" lon="12.01969000">
        <ele>91.000000</ele>
        <time>2015-04-24T17:09:54Z</time>
      </trkpt>
      <trkpt lat="57.67224000" lon="12.01973000">
        <ele>90.000000</ele>
        <time>2015-04-24T17:09:58Z</time>
      </trkpt>
      <trkpt lat="57.67218000" lon="12.01969000">
        <ele>89.000000</ele>
        <time>2015-04-24T17:10:02Z</time>
      </trkpt>
      <trkpt lat="57.67215000" lon="12.01968000">
        <ele>89.000000</ele>
        <time>2015-04-24T17:10:05Z</time>
      </trkpt>
      <trkpt lat="57.67212000" lon="12.01973000">
        <ele>89.000000</ele>
        <time>2015-04-24T17:10:08Z</time>
      </trkpt>
      <trkpt lat="57.67204000" lon="12.01979000">
        <ele>89.000000</ele>
        <time>2015-04-24T17:10:12Z</time>
      </trkpt>
      <trkpt lat="57.67197000" lon="12.01983000">
        <ele>88.000000</ele>
        <time>2015-04-24T17:10:15Z</time>
      </trkpt>
      <trkpt lat="57.67190000" lon="12.01988000">
        <ele>88.000000</ele>
        <time>2015-04-24T17:10:18Z</time>
      </trkpt>
      <trkpt lat="57.67184000" lon="12.01996000">
        <ele>89.000000</ele>
        <time>2015-04-24T17:10:22Z</time>
      </trkpt>
      <trkpt lat="57.67180000" lon="12.02004000">
        <ele>90.000000</ele>
        <time>2015-04-24T17:10:26Z</time>
      </trkpt>
      <trkpt lat="57.67180000" lon="12.02016000">
        <ele>91.000000</ele>
        <time>2015-04-24T17:10:30Z</time>
      </trkpt>
      <trkpt lat="57.67177000" lon="12.02027000">
        <ele>93.000000</ele>
        <time>2015-04-24T17:10:35Z</time>
      </trkpt>
      <trkpt lat="57.67173000" lon="12.02036000">
        <ele>94.000000</ele>
        <time>2015-04-24T17:10:40Z</time>
      </trkpt>
      <trkpt lat="57.67170000" lon="12.02037000">
        <ele>93.000000</ele>
        <time>2015-04-24T17:10:49Z</time>
      </trkpt>
      <trkpt lat="57.67168000" lon="12.02046000">
        <ele>94.000000</ele>
        <time>2015-04-24T17:11:17Z</time>
      </trkpt>
      <trkpt lat="57.67164000" lon="12.02058000">
        <ele>94.000000</ele>
        <time>2015-04-24T17:11:20Z</time>
      </trkpt>
      <trkpt lat="57.67158000" lon="12.02066000">
        <ele>94.000000</ele>
        <time>2015-04-24T17:11:24Z</time>
      </trkpt>
      <trkpt lat="57.67153000" lon="12.02073000">
        <ele>94.000000</ele>
        <time>2015-04-24T17:11:28Z</time>
      </trkpt>
      <trkpt lat="57.67148000" lon="12.02081000">
        <ele>95.000000</ele>
        <time>2015-04-24T17:11:32Z</time>
      </trkpt>
      <trkpt lat="57.67141000" lon="12.02088000">
        <ele>95.000000</ele>
        <time>2015-04-24T17:11:36Z</time>
      </trkpt>
      <trkpt lat="57.67135000" lon="12.02099000">
        <ele>95.000000</ele>
        <time>2015-04-24T17:11:40Z</time>
      </trkpt>
      <trkpt lat="57.67130000" lon="12.02105000">
        <ele>95.000000</ele>
        <time>2015-04-24T17:11:44Z</time>
      </trkpt>
      <trkpt lat="57.67130000" lon="12.02099000">
        <ele>95.000000</ele>
        <time>2015-04-24T17:11:51Z</time>
      </trkpt>
      <trkpt lat="57.67128000" lon="12.02094000">
        <ele>95.000000</ele>
        <time>2015-04-24T17:11:56Z</time>
      </trkpt>
      <trkpt lat="57.67126000" lon="12.02092000">
        <ele>94.000000</ele>
        <time>2015-04-24T17:12:38Z</time>
      </trkpt>
      <trkpt lat="57.67123000" lon="12.02093000">
        <ele>94.000000</ele>
        <time>2015-04-24T17:12:41Z</time>
      </trkpt>
      <trkpt lat="57.67115000" lon="12.02091000">
        <ele>93.000000</ele>
        <time>2015-04-24T17:12:45Z</time>
      </trkpt>
      <trkpt lat="57.67111000" lon="12.02091000">
        <ele>92.000000</ele>
        <time>2015-04-24T17:12:48Z</time>
      </trkpt>
      <trkpt lat="57.67102000" lon="12.02087000">
        <ele>90.000000</ele>
        <time>2015-04-24T17:12:52Z</time>
      </trkpt>
      <trkpt lat="57.67092000" lon="12.02083000">
        <ele>88.000000</ele>
        <time>2015-04-24T17:12:56Z</time>
      </trkpt>
      <trkpt lat="57.67083000" lon="12.02080000">
        <ele>86.000000</ele>
        <time>2015-04-24T17:12:59Z</time>
      </trkpt>
      <trkpt lat="57.67074000" lon="12.02085000">
        <ele>85.000000</ele>
        <time>2015-04-24T17:13:02Z</time>
      </trkpt>
      <trkpt lat="57.67067000" lon="12.02100000">
        <ele>86.000000</ele>
        <time>2015-04-24T17:13:05Z</time>
      </trkpt>
      <trkpt lat="57.67055000" lon="12.02108000">
        <ele>85.000000</ele>
        <time>2015-04-24T17:13:08Z</time>
      </trkpt>
      <trkpt lat="57.67050000" lon="12.02104000">
        <ele>84.000000</ele>
        <time>2015-04-24T17:13:13Z</time>
      </trkpt>
      <trkpt lat="57.67047000" lon="12.02103000">
        <ele>83.000000</ele>
        <time>2015-04-24T17:13:21Z</time>
      </trkpt>
      <trkpt lat="57.67041000" lon="12.02103000">
        <ele>82.000000</ele>
        <time>2015-04-24T17:13:25Z</time>
      </trkpt>
      <trkpt lat="57.67037000" lon="12.02102000">
        <ele>81.000000</ele>
        <time>2015-04-24T17:13:28Z</time>
      </trkpt>
      <trkpt lat="57.67033000" lon="12.02102000">
        <ele>79.000000</ele>
        <time>2015-04-24T17:13:31Z</time>
      </trkpt>
      <trkpt lat="57.67025000" lon="12.02101000">
        <ele>77.000000</ele>
        <time>2015-04-24T17:13:34Z</time>
      </trkpt>
      <trkpt lat="57.67020000" lon="12.02096000">
        <ele>75.000000</ele>
        <time>2015-04-24T17:13:40Z</time>
      </trkpt>
      <trkpt lat="57.67017000" lon="12.02096000">
        <ele>74.000000</ele>
        <time>2015-04-24T17:13:47Z</time>
      </trkpt>
      <trkpt lat="57.67005000" lon="12.02094000">
        <ele>70.000000</ele>
        <time>2015-04-24T17:14:37Z</time>
      </trkpt>
      <trkpt lat="57.67002000" lon="12.02091000">
        <ele>69.000000</ele>
        <time>2015-04-24T17:14:40Z</time>
      </trkpt>
      <trkpt lat="57.66995000" lon="12.02083000">
        <ele>65.000000</ele>
        <time>2015-04-24T17:14:43Z</time>
      </trkpt>
      <trkpt lat="57.66984000" lon="12.02088000">
        <ele>62.000000</ele>
        <time>2015-04-24T17:14:46Z</time>
      </trkpt>
      <trkpt lat="57.66973000" lon="12.02095000">
        <ele>60.000000</ele>
        <time>2015-04-24T17:14:50Z</time>
      </trkpt>
      <trkpt lat="57.66964000" lon="12.02097000">
        <ele>58.000000</ele>
        <time>2015-04-24T17:14:54Z</time>
      </trkpt>
      <trkpt lat="57.66956000" lon="12.02094000">
        <ele>55.000000</ele>
        <time>2015-04-24T17:14:57Z</time>
      </trkpt>
      <trkpt lat="57.66949000" lon="12.02088000">
        <ele>52.000000</ele>
        <time>2015-04-24T17:15:00Z</time>
      </trkpt>
      <trkpt lat="57.66941000" lon="12.02086000">
        <ele>50.000000</ele>
        <time>2015-04-24T17:15:03Z</time>
      </trkpt>
      <trkpt lat="57.66933000" lon="12.02085000">
        <ele>48.000000</ele>
        <time>2015-04-24T17:15:06Z</time>
      </trkpt>
      <trkpt lat="57.66924000" lon="12.02089000">
        <ele>47.000000</ele>
        <time>2015-04-24T17:15:09Z</time>
      </trkpt>
      <trkpt lat="57.66913000" lon="12.02087000">
        <ele>44.000000</ele>
        <time>2015-04-24T17:15:13Z</time>
      </trkpt>
      <trkpt lat="57.66905000" lon="12.02095000">
        <ele>43.000000</ele>
        <time>2015-04-24T17:15:17Z</time>
      </trkpt>
      <trkpt lat="57.66897000" lon="12.02110000">
        <ele>43.000000</ele>
        <time>2015-04-24T17:15:20Z</time>
      </trkpt>
      <trkpt lat="57.66886000" lon="12.02119000">
        <ele>41.000000</ele>
        <time>2015-04-24T17:15:23Z</time>
      </trkpt>
      <trkpt lat="57.66880000" lon="12.02125000">
        <ele>40.000000</ele>
        <time>2015-04-24T17:15:27Z</time>
      </trkpt>
      <trkpt lat="57.66875000" lon="12.02137000">
        <ele>40.000000</ele>
        <time>2015-04-24T17:15:31Z</time>
      </trkpt>
      <trkpt lat="57.66868000" lon="12.02147000">
        <ele>41.000000</ele>
        <time>2015-04-24T17:15:35Z</time>
      </trkpt>
      <trkpt lat="57.66862000" lon="12.02154000">
        <ele>41.000000</ele>
        <time>2015-04-24T17:15:39Z</time>
      </trkpt>
      <trkpt lat="57.66854000" lon="12.02160000">
        <ele>40.000000</ele>
        <time>2015-04-24T17:15:43Z</time>
      </trkpt>
      <trkpt lat="57.66847000" lon="12.02159000">
        <ele>39.000000</ele>
        <time>2015-04-24T17:15:47Z</time>
      </trkpt>
      <trkpt lat="57.66838000" lon="12.02154000">
        <ele>37.000000</ele>
        <time>2015-04-24T17:15:51Z</time>
      </trkpt>
      <trkpt lat="57.66833000" lon="12.02143000">
        <ele>35.000000</ele>
        <time>2015-04-24T17:15:54Z</time>
      </trkpt>
      <trkpt lat="57.66827000" lon="12.02129000">
        <ele>34.000000</ele>
        <time>2015-04-24T17:15:57Z</time>
      </trkpt>
      <trkpt lat="57.66816000" lon="12.02127000">
        <ele>32.000000</ele>
        <time>2015-04-24T17:16:00Z</time>
      </trkpt>
      <trkpt lat="57.66807000" lon="12.02134000">
        <ele>31.000000</ele>
        <time>2015-04-24T17:16:03Z</time>
      </trkpt>
      <trkpt lat="57.66799000" lon="12.02147000">
        <ele>31.000000</ele>
        <time>2015-04-24T17:16:06Z</time>
      </trkpt>
      <trkpt lat="57.66795000" lon="12.02164000">
        <ele>31.000000</ele>
        <time>2015-04-24T17:16:09Z</time>
      </trkpt>
      <trkpt lat="57.66789000" lon="12.02178000">
        <ele>32.000000</ele>
        <time>2015-04-24T17:16:12Z</time>
      </trkpt>
      <trkpt lat="57.66783000" lon="12.02190000">
        <ele>32.000000</ele>
        <time>2015-04-24T17:16:15Z</time>
      </trkpt>
      <trkpt lat="57.66776000" lon="12.02201000">
        <ele>32.000000</ele>
        <time>2015-04-24T17:16:18Z</time>
      </trkpt>
      <trkpt lat="57.66770000" lon="12.02208000">
        <ele>32.000000</ele>
        <time>2015-04-24T17:16:20Z</time>
      </trkpt>
    </trkseg>
  </trk>
</gpx>

